createdAt,value
2018-03-28T00:00:35.768Z,6.93
2018-03-28T00:01:35.598Z,6.92
2018-03-28T00:02:35.781Z,6.92
2018-03-28T00:03:35.611Z,6.92
2018-03-28T00:04:35.795Z,6.91
2018-03-28T00:05:35.619Z,6.92
2018-03-28T00:06:35.807Z,6.92
2018-03-28T00:07:35.699Z,6.92
2018-03-28T00:08:35.832Z,6.92
2018-03-28T00:09:35.641Z,6.92
2018-03-28T00:10:35.838Z,6.92
2018-03-28T00:11:35.654Z,6.91
2018-03-28T00:12:35.847Z,6.92
2018-03-28T00:13:35.665Z,6.92
2018-03-28T00:14:35.861Z,6.92
2018-03-28T00:15:35.681Z,6.92
2018-03-28T00:16:35.929Z,6.92
2018-03-28T00:17:35.687Z,6.92
2018-03-28T00:18:35.892Z,6.92
2018-03-28T00:19:35.696Z,6.92
2018-03-28T00:20:35.906Z,6.92
2018-03-28T00:21:35.710Z,6.91
2018-03-28T00:22:35.813Z,6.89
2018-03-28T00:23:35.724Z,6.91
2018-03-28T00:24:35.849Z,6.91
2018-03-28T00:25:35.728Z,6.91
2018-03-28T00:26:35.748Z,6.89
2018-03-28T00:27:35.742Z,6.89
2018-03-28T00:28:35.737Z,6.89
2018-03-28T00:29:35.747Z,6.89
2018-03-28T00:30:35.873Z,6.89
2018-03-28T00:31:35.757Z,6.89
2018-03-28T00:32:35.878Z,6.89
2018-03-28T00:33:35.769Z,6.89
2018-03-28T00:34:35.899Z,6.88
2018-03-28T00:35:35.779Z,6.89
2018-03-28T00:36:35.915Z,6.89
2018-03-28T00:37:35.791Z,6.89
2018-03-28T00:38:35.935Z,6.88
2018-03-28T00:39:35.796Z,6.88
2018-03-28T00:40:35.940Z,6.89
2018-03-28T00:41:35.809Z,6.88
2018-03-28T00:42:35.954Z,6.88
2018-03-28T00:43:35.831Z,6.88
2018-03-28T00:44:35.965Z,6.88
2018-03-28T00:45:35.834Z,6.88
2018-03-28T00:46:35.983Z,6.88
2018-03-28T00:47:35.837Z,6.88
2018-03-28T00:48:36.000Z,6.88
2018-03-28T00:49:35.852Z,6.86
2018-03-28T00:50:36.933Z,6.88
2018-03-28T00:51:35.866Z,6.88
2018-03-28T00:52:35.870Z,6.86
2018-03-28T00:53:36.031Z,6.85
2018-03-28T00:54:35.883Z,6.86
2018-03-28T00:55:36.042Z,6.85
2018-03-28T00:56:35.895Z,6.86
2018-03-28T00:57:37.078Z,6.86
2018-03-28T00:58:35.915Z,6.85
2018-03-28T00:59:36.066Z,6.86
2018-03-28T01:00:35.907Z,6.85
2018-03-28T01:01:37.108Z,6.85
2018-03-28T01:02:35.923Z,6.83
2018-03-28T01:03:36.097Z,6.83
2018-03-28T01:04:35.928Z,6.85
2018-03-28T01:05:36.112Z,6.83
2018-03-28T01:06:35.935Z,6.85
2018-03-28T01:07:36.123Z,6.85
2018-03-28T01:08:35.967Z,6.83
2018-03-28T01:09:36.138Z,6.83
2018-03-28T01:10:35.961Z,6.83
2018-03-28T01:11:36.150Z,6.82
2018-03-28T01:12:35.982Z,6.83
2018-03-28T01:13:36.165Z,6.82
2018-03-28T01:14:35.980Z,6.82
2018-03-28T01:15:36.073Z,6.83
2018-03-28T01:16:35.990Z,6.82
2018-03-28T01:17:36.090Z,6.81
2018-03-28T01:18:35.995Z,6.81
2018-03-28T01:19:36.102Z,6.81
2018-03-28T01:20:36.013Z,6.81
2018-03-28T01:21:36.114Z,6.81
2018-03-28T01:22:36.022Z,6.82
2018-03-28T01:23:36.131Z,6.82
2018-03-28T01:24:36.037Z,6.82
2018-03-28T01:25:36.144Z,6.82
2018-03-28T01:26:36.045Z,6.82
2018-03-28T01:27:36.163Z,6.82
2018-03-28T01:28:36.049Z,6.83
2018-03-28T01:29:36.171Z,6.82
2018-03-28T01:30:36.067Z,6.82
2018-03-28T01:31:36.181Z,6.81
2018-03-28T01:32:36.077Z,6.82
2018-03-28T01:33:36.199Z,6.82
2018-03-28T01:34:36.089Z,6.81
2018-03-28T01:35:36.210Z,6.81
2018-03-28T01:36:36.109Z,6.81
2018-03-28T01:37:36.224Z,6.81
2018-03-28T01:38:36.117Z,6.81
2018-03-28T01:39:36.243Z,6.81
2018-03-28T01:40:36.118Z,6.79
2018-03-28T01:41:36.147Z,6.79
2018-03-28T01:42:36.128Z,6.79
2018-03-28T01:43:36.161Z,6.78
2018-03-28T01:44:36.136Z,6.79
2018-03-28T01:45:36.180Z,6.78
2018-03-28T01:46:36.144Z,6.78
2018-03-28T01:47:36.189Z,6.79
2018-03-28T01:48:36.153Z,6.78
2018-03-28T01:49:36.210Z,6.78
2018-03-28T01:50:36.168Z,6.75
2018-03-28T01:51:36.219Z,6.78
2018-03-28T01:52:36.175Z,6.75
2018-03-28T01:53:36.236Z,6.75
2018-03-28T01:54:36.184Z,6.75
2018-03-28T01:55:36.242Z,6.75
2018-03-28T01:56:36.194Z,6.75
2018-03-28T01:57:36.258Z,6.75
2018-03-28T01:58:36.203Z,6.75
2018-03-28T01:59:36.271Z,6.74
2018-03-28T02:00:36.217Z,6.74
2018-03-28T02:01:36.281Z,6.74
2018-03-28T02:02:36.228Z,6.74
2018-03-28T02:03:36.298Z,6.74
2018-03-28T02:04:36.233Z,6.73
2018-03-28T02:05:36.310Z,6.73
2018-03-28T02:06:36.243Z,6.73
2018-03-28T02:07:37.350Z,6.73
2018-03-28T02:08:36.256Z,6.73
2018-03-28T02:09:36.338Z,6.73
2018-03-28T02:10:36.273Z,6.71
2018-03-28T02:11:36.351Z,6.71
2018-03-28T02:12:36.283Z,6.71
2018-03-28T02:13:36.364Z,6.70
2018-03-28T02:14:36.295Z,6.70
2018-03-28T02:15:36.379Z,6.70
2018-03-28T02:16:36.303Z,6.70
2018-03-28T02:17:36.396Z,6.68
2018-03-28T02:18:36.318Z,6.68
2018-03-28T02:19:36.405Z,6.67
2018-03-28T02:20:36.311Z,6.67
2018-03-28T02:21:36.419Z,6.67
2018-03-28T02:22:36.329Z,6.65
2018-03-28T02:23:36.435Z,6.65
2018-03-28T02:24:36.335Z,6.67
2018-03-28T02:25:36.448Z,6.67
2018-03-28T02:26:36.346Z,6.67
2018-03-28T02:27:36.560Z,6.65
2018-03-28T02:28:36.352Z,6.65
2018-03-28T02:29:37.498Z,6.68
2018-03-28T02:30:36.377Z,6.67
2018-03-28T02:31:37.514Z,6.68
2018-03-28T02:32:36.384Z,6.67
2018-03-28T02:33:36.502Z,6.68
2018-03-28T02:34:36.396Z,6.67
2018-03-28T02:35:36.515Z,6.68
2018-03-28T02:36:36.397Z,6.68
2018-03-28T02:37:36.530Z,6.68
2018-03-28T02:38:36.413Z,6.68
2018-03-28T02:39:36.549Z,6.68
2018-03-28T02:40:36.416Z,6.70
2018-03-28T02:41:36.554Z,6.68
2018-03-28T02:42:36.497Z,6.67
2018-03-28T02:43:36.585Z,6.70
2018-03-28T02:44:36.433Z,6.70
2018-03-28T02:45:36.593Z,6.70
2018-03-28T02:46:36.446Z,6.70
2018-03-28T02:47:36.598Z,6.68
2018-03-28T02:48:36.460Z,6.70
2018-03-28T02:49:36.616Z,6.70
2018-03-28T02:50:36.474Z,6.70
2018-03-28T02:51:36.630Z,6.71
2018-03-28T02:52:36.469Z,6.71
2018-03-28T02:53:36.545Z,6.70
2018-03-28T02:54:36.511Z,6.70
2018-03-28T02:55:36.562Z,6.70
2018-03-28T02:56:36.494Z,6.71
2018-03-28T02:57:36.572Z,6.71
2018-03-28T02:58:36.505Z,6.70
2018-03-28T02:59:36.692Z,6.70
2018-03-28T03:00:36.527Z,6.70
2018-03-28T03:01:36.600Z,6.68
2018-03-28T03:02:36.524Z,6.70
2018-03-28T03:03:36.618Z,6.70
2018-03-28T03:04:36.537Z,6.71
2018-03-28T03:05:36.624Z,6.71
2018-03-28T03:06:36.552Z,6.70
2018-03-28T03:07:36.643Z,6.70
2018-03-28T03:08:36.559Z,6.70
2018-03-28T03:09:36.651Z,6.70
2018-03-28T03:10:36.564Z,6.70
2018-03-28T03:11:36.660Z,6.71
2018-03-28T03:12:36.577Z,6.71
2018-03-28T03:13:36.675Z,6.71
2018-03-28T03:14:36.600Z,6.73
2018-03-28T03:15:36.692Z,6.73
2018-03-28T03:16:36.612Z,6.73
2018-03-28T03:17:36.700Z,6.71
2018-03-28T03:18:36.605Z,6.71
2018-03-28T03:19:36.728Z,6.71
2018-03-28T03:20:36.619Z,6.71
2018-03-28T03:21:36.733Z,6.73
2018-03-28T03:22:36.630Z,6.73
2018-03-28T03:23:36.748Z,6.74
2018-03-28T03:24:36.628Z,6.71
2018-03-28T03:25:36.772Z,6.73
2018-03-28T03:26:36.642Z,6.73
2018-03-28T03:27:36.779Z,6.74
2018-03-28T03:28:36.657Z,6.74
2018-03-28T03:29:36.796Z,6.74
2018-03-28T03:30:36.672Z,6.75
2018-03-28T03:31:36.802Z,6.73
2018-03-28T03:32:36.673Z,6.74
2018-03-28T03:33:36.821Z,6.74
2018-03-28T03:34:36.678Z,6.74
2018-03-28T03:35:36.832Z,6.73
2018-03-28T03:36:36.691Z,6.74
2018-03-28T03:37:36.842Z,6.74
2018-03-28T03:38:36.699Z,6.75
2018-03-28T03:39:36.861Z,6.74
2018-03-28T03:40:36.710Z,6.74
2018-03-28T03:41:36.870Z,6.74
2018-03-28T03:42:36.728Z,6.74
2018-03-28T03:43:36.878Z,6.75
2018-03-28T03:44:36.747Z,6.74
2018-03-28T03:45:36.905Z,6.75
2018-03-28T03:46:36.748Z,6.74
2018-03-28T03:47:36.913Z,6.74
2018-03-28T03:48:36.762Z,6.74
2018-03-28T03:49:36.947Z,6.74
2018-03-28T03:50:36.777Z,6.74
2018-03-28T03:51:36.937Z,6.74
2018-03-28T03:52:36.762Z,6.74
2018-03-28T03:53:36.946Z,6.74
2018-03-28T03:54:36.784Z,6.74
2018-03-28T03:55:36.966Z,6.74
2018-03-28T03:56:36.793Z,6.74
2018-03-28T03:57:36.974Z,6.74
2018-03-28T03:58:36.796Z,6.74
2018-03-28T03:59:36.985Z,6.75
2018-03-28T04:00:36.812Z,6.74
2018-03-28T04:01:36.904Z,6.75
2018-03-28T04:02:36.821Z,6.75
2018-03-28T04:03:36.917Z,6.74
2018-03-28T04:04:36.825Z,6.75
2018-03-28T04:05:36.935Z,6.74
2018-03-28T04:06:36.837Z,6.78
2018-03-28T04:07:38.994Z,6.74
2018-03-28T04:08:36.847Z,6.75
2018-03-28T04:09:36.955Z,6.74
2018-03-28T04:10:36.854Z,6.75
2018-03-28T04:11:36.967Z,6.78
2018-03-28T04:12:36.869Z,6.78
2018-03-28T04:13:36.982Z,6.78
2018-03-28T04:14:36.874Z,6.78
2018-03-28T04:15:36.995Z,6.75
2018-03-28T04:16:36.892Z,6.79
2018-03-28T04:17:37.011Z,6.75
2018-03-28T04:18:36.899Z,6.75
2018-03-28T04:19:37.022Z,6.78
2018-03-28T04:20:36.902Z,6.79
2018-03-28T04:21:37.035Z,6.78
2018-03-28T04:22:36.916Z,6.79
2018-03-28T04:23:37.049Z,6.78
2018-03-28T04:24:36.926Z,6.78
2018-03-28T04:25:37.064Z,6.78
2018-03-28T04:26:36.955Z,6.78
2018-03-28T04:27:37.072Z,6.78
2018-03-28T04:28:36.941Z,6.79
2018-03-28T04:29:37.088Z,6.79
2018-03-28T04:30:36.954Z,6.79
2018-03-28T04:31:37.003Z,6.79
2018-03-28T04:32:36.963Z,6.81
2018-03-28T04:33:37.123Z,6.78
2018-03-28T04:34:36.974Z,6.79
2018-03-28T04:35:37.134Z,6.79
2018-03-28T04:36:36.983Z,6.79
2018-03-28T04:37:37.150Z,6.79
2018-03-28T04:38:37.004Z,6.79
2018-03-28T04:39:37.160Z,6.78
2018-03-28T04:40:37.035Z,6.81
2018-03-28T04:41:37.171Z,6.81
2018-03-28T04:42:37.012Z,6.79
2018-03-28T04:43:37.195Z,6.81
2018-03-28T04:44:37.026Z,6.81
2018-03-28T04:45:37.197Z,6.81
2018-03-28T04:46:37.039Z,6.79
2018-03-28T04:47:37.211Z,6.79
2018-03-28T04:48:37.041Z,6.82
2018-03-28T04:49:37.331Z,6.82
2018-03-28T04:50:37.049Z,6.81
2018-03-28T04:51:37.255Z,6.82
2018-03-28T04:52:37.055Z,6.82
2018-03-28T04:53:37.261Z,6.82
2018-03-28T04:54:37.071Z,6.83
2018-03-28T04:55:37.269Z,6.82
2018-03-28T04:56:37.081Z,6.83
2018-03-28T04:57:37.279Z,6.83
2018-03-28T04:58:37.099Z,6.83
2018-03-28T04:59:37.297Z,6.83
2018-03-28T05:00:37.099Z,6.83
2018-03-28T05:01:37.212Z,6.82
2018-03-28T05:02:37.105Z,6.82
2018-03-28T05:03:37.228Z,6.82
2018-03-28T05:04:37.108Z,6.83
2018-03-28T05:05:37.241Z,6.82
2018-03-28T05:06:37.127Z,6.83
2018-03-28T05:07:37.247Z,6.85
2018-03-28T05:08:37.133Z,6.83
2018-03-28T05:09:37.261Z,6.83
2018-03-28T05:10:37.141Z,6.83
2018-03-28T05:11:37.280Z,6.85
2018-03-28T05:12:37.153Z,6.85
2018-03-28T05:13:37.294Z,6.83
2018-03-28T05:14:37.164Z,6.83
2018-03-28T05:15:37.356Z,6.86
2018-03-28T05:16:37.174Z,6.85
2018-03-28T05:17:37.317Z,6.85
2018-03-28T05:18:37.179Z,6.85
2018-03-28T05:19:38.361Z,6.83
2018-03-28T05:20:37.189Z,6.85
2018-03-28T05:21:37.346Z,6.83
2018-03-28T05:22:37.257Z,6.83
2018-03-28T05:23:37.353Z,6.83
2018-03-28T05:24:37.215Z,6.85
2018-03-28T05:25:37.366Z,6.85
2018-03-28T05:26:37.226Z,6.85
2018-03-28T05:27:37.384Z,6.86
2018-03-28T05:28:37.231Z,6.85
2018-03-28T05:29:37.401Z,6.86
2018-03-28T05:30:37.245Z,6.85
2018-03-28T05:31:37.408Z,6.86
2018-03-28T05:32:37.249Z,6.86
2018-03-28T05:33:37.480Z,6.86
2018-03-28T05:34:37.255Z,6.86
2018-03-28T05:35:37.436Z,6.86
2018-03-28T05:36:37.267Z,6.88
2018-03-28T05:37:37.482Z,6.86
2018-03-28T05:38:37.277Z,6.88
2018-03-28T05:39:37.462Z,6.88
2018-03-28T05:40:37.303Z,6.89
2018-03-28T05:41:37.374Z,6.91
2018-03-28T05:42:37.293Z,6.91
2018-03-28T05:43:37.386Z,6.91
2018-03-28T05:44:37.330Z,6.91
2018-03-28T05:45:37.618Z,6.91
2018-03-28T05:46:37.318Z,6.91
2018-03-28T05:47:37.417Z,6.92
2018-03-28T05:48:37.318Z,6.93
2018-03-28T05:49:37.431Z,6.92
2018-03-28T05:50:37.326Z,6.93
2018-03-28T05:51:37.449Z,6.92
2018-03-28T05:52:37.339Z,6.91
2018-03-28T05:53:37.463Z,6.93
2018-03-28T05:54:37.410Z,6.93
2018-03-28T05:55:37.471Z,6.93
2018-03-28T05:56:37.362Z,6.93
2018-03-28T05:57:37.523Z,6.93
2018-03-28T05:58:37.368Z,6.93
2018-03-28T05:59:37.498Z,6.96
2018-03-28T06:00:37.402Z,6.93
2018-03-28T06:01:37.512Z,6.93
2018-03-28T06:02:37.389Z,6.92
2018-03-28T06:03:37.431Z,6.93
2018-03-28T06:04:37.395Z,6.93
2018-03-28T06:05:37.456Z,6.93
2018-03-28T06:06:37.404Z,6.96
2018-03-28T06:07:37.518Z,6.96
2018-03-28T06:08:37.414Z,6.97
2018-03-28T06:09:37.660Z,6.97
2018-03-28T06:10:37.434Z,6.99
2018-03-28T06:11:37.498Z,6.99
2018-03-28T06:12:37.435Z,6.99
2018-03-28T06:13:37.511Z,7.00
2018-03-28T06:14:37.438Z,7.00
2018-03-28T06:15:37.527Z,7.00
2018-03-28T06:16:37.451Z,7.01
2018-03-28T06:17:37.525Z,7.01
2018-03-28T06:18:37.455Z,7.00
2018-03-28T06:19:37.539Z,7.03
2018-03-28T06:20:37.468Z,7.01
2018-03-28T06:21:37.553Z,7.01
2018-03-28T06:22:37.484Z,7.03
2018-03-28T06:23:37.630Z,7.04
2018-03-28T06:24:37.494Z,7.04
2018-03-28T06:25:37.650Z,7.03
2018-03-28T06:26:37.496Z,7.04
2018-03-28T06:27:37.656Z,7.06
2018-03-28T06:28:37.509Z,7.07
2018-03-28T06:29:37.674Z,7.07
2018-03-28T06:30:37.542Z,7.08
2018-03-28T06:31:37.532Z,7.10
2018-03-28T06:32:37.620Z,7.13
2018-03-28T06:33:37.530Z,7.13
2018-03-28T06:34:37.696Z,7.13
2018-03-28T06:35:37.563Z,7.15
2018-03-28T06:36:37.662Z,7.18
2018-03-28T06:37:37.567Z,7.19
2018-03-28T06:38:37.695Z,7.19
2018-03-28T06:39:37.563Z,7.19
2018-03-28T06:40:37.704Z,7.21
2018-03-28T06:41:37.592Z,7.19
2018-03-28T06:42:37.695Z,7.21
2018-03-28T06:43:37.573Z,7.22
2018-03-28T06:44:37.714Z,7.24
2018-03-28T06:45:37.591Z,7.24
2018-03-28T06:46:37.620Z,7.24
2018-03-28T06:47:37.594Z,7.25
2018-03-28T06:48:37.732Z,7.26
2018-03-28T06:49:37.607Z,7.26
2018-03-28T06:50:37.828Z,7.26
2018-03-28T06:51:37.620Z,7.28
2018-03-28T06:52:37.775Z,7.29
2018-03-28T06:53:37.656Z,7.31
2018-03-28T06:54:37.773Z,7.33
2018-03-28T06:55:37.732Z,7.33
2018-03-28T06:56:37.786Z,7.34
2018-03-28T06:57:37.676Z,7.39
2018-03-28T06:58:37.698Z,7.39
2018-03-28T06:59:37.712Z,7.42
2018-03-28T07:00:37.710Z,7.43
2018-03-28T07:01:37.661Z,7.46
2018-03-28T07:02:37.725Z,7.49
2018-03-28T07:03:37.666Z,7.50
2018-03-28T07:04:37.736Z,7.54
2018-03-28T07:05:37.718Z,7.57
2018-03-28T07:06:37.751Z,7.60
2018-03-28T07:07:37.684Z,7.62
2018-03-28T07:08:37.685Z,7.68
2018-03-28T07:09:37.693Z,7.69
2018-03-28T07:10:37.698Z,7.73
2018-03-28T07:11:37.707Z,7.76
2018-03-28T07:12:37.713Z,7.78
2018-03-28T07:13:38.156Z,7.80
2018-03-28T07:14:37.729Z,7.81
2018-03-28T07:15:37.724Z,7.81
2018-03-28T07:16:37.736Z,7.81
2018-03-28T07:17:37.728Z,7.83
2018-03-28T07:18:37.742Z,7.83
2018-03-28T07:19:37.748Z,7.84
2018-03-28T07:20:37.793Z,7.83
2018-03-28T07:21:37.746Z,7.83
2018-03-28T07:22:37.761Z,7.84
2018-03-28T07:23:37.778Z,7.84
2018-03-28T07:24:37.760Z,7.84
2018-03-28T07:25:37.767Z,7.84
2018-03-28T07:26:37.770Z,7.87
2018-03-28T07:27:37.785Z,7.88
2018-03-28T07:28:37.833Z,7.92
2018-03-28T07:29:37.795Z,7.94
2018-03-28T07:30:37.814Z,7.95
2018-03-28T07:31:37.809Z,7.96
2018-03-28T07:32:37.844Z,7.96
2018-03-28T07:33:37.823Z,7.99
2018-03-28T07:34:37.815Z,8.04
2018-03-28T07:35:37.811Z,8.06
2018-03-28T07:36:37.828Z,8.10
2018-03-28T07:37:37.819Z,8.13
2018-03-28T07:38:37.826Z,8.13
2018-03-28T07:39:37.956Z,8.16
2018-03-28T07:40:37.843Z,8.16
2018-03-28T07:41:37.846Z,8.17
2018-03-28T07:42:37.848Z,8.20
2018-03-28T07:43:37.981Z,8.20
2018-03-28T07:44:37.892Z,8.23
2018-03-28T07:45:37.987Z,8.23
2018-03-28T07:46:37.869Z,8.24
2018-03-28T07:47:37.899Z,8.24
2018-03-28T07:48:37.875Z,8.26
2018-03-28T07:49:38.024Z,8.24
2018-03-28T07:50:37.882Z,8.26
2018-03-28T07:51:38.073Z,8.26
2018-03-28T07:52:37.884Z,8.24
2018-03-28T07:53:37.945Z,8.24
2018-03-28T07:54:37.898Z,8.23
2018-03-28T07:55:37.957Z,8.23
2018-03-28T07:56:37.908Z,8.21
2018-03-28T07:57:37.967Z,8.21
2018-03-28T07:58:37.922Z,8.23
2018-03-28T07:59:37.985Z,8.26
2018-03-28T08:00:37.927Z,8.31
2018-03-28T08:01:37.996Z,8.34
2018-03-28T08:02:37.935Z,8.37
2018-03-28T08:03:38.019Z,8.41
2018-03-28T08:04:37.943Z,8.42
2018-03-28T08:05:38.023Z,8.44
2018-03-28T08:06:37.960Z,8.41
2018-03-28T08:07:38.053Z,8.38
2018-03-28T08:08:37.963Z,8.35
2018-03-28T08:09:38.053Z,8.31
2018-03-28T08:10:37.991Z,8.28
2018-03-28T08:11:38.071Z,8.26
2018-03-28T08:12:37.986Z,8.24
2018-03-28T08:13:38.072Z,8.23
2018-03-28T08:14:37.994Z,8.23
2018-03-28T08:15:38.088Z,8.23
2018-03-28T08:16:38.013Z,8.23
2018-03-28T08:17:38.095Z,8.24
2018-03-28T08:18:38.019Z,8.26
2018-03-28T08:19:38.114Z,8.31
2018-03-28T08:20:38.027Z,8.32
2018-03-28T08:21:38.122Z,8.37
2018-03-28T08:22:38.031Z,8.39
2018-03-28T08:23:38.138Z,8.41
2018-03-28T08:24:38.042Z,8.46
2018-03-28T08:25:38.153Z,8.50
2018-03-28T08:26:38.046Z,8.53
2018-03-28T08:27:38.164Z,8.57
2018-03-28T08:28:38.050Z,8.62
2018-03-28T08:29:39.231Z,8.67
2018-03-28T08:30:38.083Z,8.68
2018-03-28T08:31:38.200Z,8.71
2018-03-28T08:32:38.072Z,8.75
2018-03-28T08:33:38.203Z,8.77
2018-03-28T08:34:38.082Z,8.78
2018-03-28T08:35:38.233Z,8.81
2018-03-28T08:36:38.095Z,8.85
2018-03-28T08:37:38.256Z,8.85
2018-03-28T08:38:38.100Z,8.85
2018-03-28T08:39:38.319Z,8.86
2018-03-28T08:40:38.111Z,8.88
2018-03-28T08:41:38.230Z,8.88
2018-03-28T08:42:38.130Z,8.92
2018-03-28T08:43:38.245Z,8.95
2018-03-28T08:44:38.138Z,8.99
2018-03-28T08:45:38.361Z,9.04
2018-03-28T08:46:38.172Z,9.08
2018-03-28T08:47:38.171Z,9.11
2018-03-28T08:48:38.141Z,9.15
2018-03-28T08:49:38.289Z,9.23
2018-03-28T08:50:38.150Z,9.30
2018-03-28T08:51:40.338Z,9.42
2018-03-28T08:52:38.161Z,9.51
2018-03-28T08:53:38.309Z,9.60
2018-03-28T08:54:38.177Z,9.66
2018-03-28T08:55:40.269Z,9.72
2018-03-28T08:56:38.184Z,9.75
2018-03-28T08:57:38.230Z,9.77
2018-03-28T08:58:38.195Z,9.80
2018-03-28T08:59:38.256Z,9.84
2018-03-28T09:00:38.206Z,9.87
2018-03-28T09:01:38.361Z,9.90
2018-03-28T09:02:38.229Z,9.94
2018-03-28T09:03:42.992Z,9.98
2018-03-28T09:04:38.219Z,10.02
2018-03-28T09:05:38.311Z,10.03
2018-03-28T09:06:38.240Z,10.08
2018-03-28T09:07:38.301Z,10.14
2018-03-28T09:08:38.246Z,10.20
2018-03-28T09:09:38.310Z,10.24
2018-03-28T09:10:38.265Z,10.27
2018-03-28T09:11:38.446Z,10.34
2018-03-28T09:12:38.274Z,10.41
2018-03-28T09:13:42.958Z,10.45
2018-03-28T09:14:38.265Z,10.54
2018-03-28T09:15:38.354Z,10.58
2018-03-28T09:16:38.271Z,10.62
2018-03-28T09:17:38.369Z,10.64
2018-03-28T09:18:38.289Z,10.64
2018-03-28T09:19:39.409Z,10.67
2018-03-28T09:20:38.290Z,10.70
2018-03-28T09:21:38.391Z,10.72
2018-03-28T09:22:38.302Z,10.73
2018-03-28T09:23:43.943Z,10.78
2018-03-28T09:24:38.324Z,10.79
2018-03-28T09:25:39.469Z,10.80
2018-03-28T09:26:38.326Z,10.79
2018-03-28T09:27:39.462Z,10.76
2018-03-28T09:28:38.336Z,10.76
2018-03-28T09:29:38.445Z,10.73
2018-03-28T09:30:38.374Z,10.72
2018-03-28T09:31:39.383Z,10.70
2018-03-28T09:32:38.347Z,10.68
2018-03-28T09:33:38.482Z,10.65
2018-03-28T09:34:38.367Z,10.61
2018-03-28T09:35:38.499Z,10.61
2018-03-28T09:36:38.371Z,10.60
2018-03-28T09:37:38.501Z,10.62
2018-03-28T09:38:38.390Z,10.62
2018-03-28T09:39:38.518Z,10.67
2018-03-28T09:40:38.418Z,10.73
2018-03-28T09:41:38.522Z,10.79
2018-03-28T09:42:38.392Z,10.83
2018-03-28T09:43:38.433Z,10.90
2018-03-28T09:44:38.410Z,10.94
2018-03-28T09:45:39.469Z,10.95
2018-03-28T09:46:38.418Z,10.98
2018-03-28T09:47:38.466Z,11.00
2018-03-28T09:48:38.426Z,11.00
2018-03-28T09:49:38.476Z,11.03
2018-03-28T09:50:38.443Z,11.03
2018-03-28T09:51:38.472Z,11.04
2018-03-28T09:52:38.496Z,11.05
2018-03-28T09:53:38.478Z,11.09
2018-03-28T09:54:38.463Z,11.12
2018-03-28T09:55:38.491Z,11.12
2018-03-28T09:56:38.459Z,11.11
2018-03-28T09:57:38.501Z,11.09
2018-03-28T09:58:38.472Z,11.08
2018-03-28T09:59:38.533Z,11.08
2018-03-28T10:00:38.486Z,11.09
2018-03-28T10:01:38.545Z,11.12
2018-03-28T10:02:38.499Z,11.13
2018-03-28T10:03:38.539Z,11.16
2018-03-28T10:04:38.513Z,11.18
2018-03-28T10:05:38.557Z,11.18
2018-03-28T10:06:38.509Z,11.20
2018-03-28T10:07:38.568Z,11.23
2018-03-28T10:08:38.526Z,11.30
2018-03-28T10:09:38.523Z,11.34
2018-03-28T10:10:38.527Z,11.40
2018-03-28T10:11:38.591Z,11.41
2018-03-28T10:12:38.539Z,11.45
2018-03-28T10:13:38.621Z,11.46
2018-03-28T10:14:38.562Z,11.46
2018-03-28T10:15:38.636Z,11.45
2018-03-28T10:16:38.558Z,11.41
2018-03-28T10:17:38.633Z,11.41
2018-03-28T10:18:38.698Z,11.37
2018-03-28T10:19:38.663Z,11.34
2018-03-28T10:20:38.583Z,11.34
2018-03-28T10:21:38.664Z,11.36
2018-03-28T10:22:38.584Z,11.40
2018-03-28T10:23:38.683Z,11.43
2018-03-28T10:24:38.592Z,11.46
2018-03-28T10:25:38.679Z,11.48
2018-03-28T10:26:38.691Z,11.49
2018-03-28T10:27:38.694Z,11.51
2018-03-28T10:28:38.637Z,11.54
2018-03-28T10:29:38.714Z,11.55
2018-03-28T10:30:38.628Z,11.58
2018-03-28T10:31:38.726Z,11.61
2018-03-28T10:32:38.639Z,11.61
2018-03-28T10:33:38.733Z,11.62
2018-03-28T10:34:38.660Z,11.66
2018-03-28T10:35:38.750Z,11.67
2018-03-28T10:36:38.682Z,11.69
2018-03-28T10:37:38.762Z,11.71
2018-03-28T10:38:38.665Z,11.71
2018-03-28T10:39:38.787Z,11.73
2018-03-28T10:40:38.680Z,11.73
2018-03-28T10:41:38.784Z,11.70
2018-03-28T10:42:38.688Z,11.69
2018-03-28T10:43:38.825Z,11.70
2018-03-28T10:44:38.686Z,11.71
2018-03-28T10:45:38.724Z,11.70
2018-03-28T10:46:38.705Z,11.69
2018-03-28T10:47:38.722Z,11.67
2018-03-28T10:48:38.725Z,11.66
2018-03-28T10:49:38.740Z,11.66
2018-03-28T10:50:38.748Z,11.66
2018-03-28T10:51:38.747Z,11.67
2018-03-28T10:52:38.728Z,11.71
2018-03-28T10:53:38.766Z,11.73
2018-03-28T10:54:38.744Z,11.71
2018-03-28T10:55:38.775Z,11.73
2018-03-28T10:56:38.850Z,11.71
2018-03-28T10:57:38.821Z,11.70
2018-03-28T10:58:38.772Z,11.69
2018-03-28T10:59:38.770Z,11.67
2018-03-28T11:00:38.776Z,11.66
2018-03-28T11:01:38.814Z,11.64
2018-03-28T11:02:38.783Z,11.66
2018-03-28T11:03:38.824Z,11.64
2018-03-28T11:04:38.785Z,11.62
2018-03-28T11:05:38.848Z,11.59
2018-03-28T11:06:38.939Z,11.56
2018-03-28T11:07:38.854Z,11.56
2018-03-28T11:08:38.809Z,11.56
2018-03-28T11:09:38.871Z,11.52
2018-03-28T11:10:38.825Z,11.49
2018-03-28T11:11:38.837Z,11.49
2018-03-28T11:12:38.836Z,11.49
2018-03-28T11:13:38.932Z,11.48
2018-03-28T11:14:38.840Z,11.48
2018-03-28T11:15:38.946Z,11.43
2018-03-28T11:16:38.853Z,11.40
2018-03-28T11:17:38.972Z,11.36
2018-03-28T11:18:38.859Z,11.31
2018-03-28T11:19:38.981Z,11.28
2018-03-28T11:20:38.889Z,11.28
2018-03-28T11:21:38.992Z,11.23
2018-03-28T11:22:38.882Z,11.20
2018-03-28T11:23:39.003Z,11.19
2018-03-28T11:24:38.888Z,11.19
2018-03-28T11:25:39.029Z,11.18
2018-03-28T11:26:38.913Z,11.18
2018-03-28T11:27:39.023Z,11.18
2018-03-28T11:28:38.908Z,11.20
2018-03-28T11:29:39.046Z,11.22
2018-03-28T11:30:38.936Z,11.25
2018-03-28T11:31:39.005Z,11.23
2018-03-28T11:32:38.929Z,11.25
2018-03-28T11:33:39.053Z,11.22
2018-03-28T11:34:38.933Z,11.23
2018-03-28T11:35:39.064Z,11.23
2018-03-28T11:36:38.943Z,11.22
2018-03-28T11:37:39.089Z,11.20
2018-03-28T11:38:38.961Z,11.18
2018-03-28T11:39:39.095Z,11.18
2018-03-28T11:40:38.964Z,11.15
2018-03-28T11:41:38.970Z,11.15
2018-03-28T11:42:38.981Z,11.15
2018-03-28T11:43:38.989Z,11.16
2018-03-28T11:44:38.988Z,11.15
2018-03-28T11:45:38.993Z,11.12
2018-03-28T11:46:39.000Z,11.11
2018-03-28T11:47:39.014Z,11.11
2018-03-28T11:48:39.007Z,11.08
2018-03-28T11:49:39.092Z,11.05
2018-03-28T11:50:39.024Z,11.03
2018-03-28T11:51:39.048Z,10.98
2018-03-28T11:52:39.038Z,10.94
2018-03-28T11:53:39.037Z,10.90
2018-03-28T11:54:39.044Z,10.86
2018-03-28T11:55:39.073Z,10.82
2018-03-28T11:56:39.046Z,10.76
2018-03-28T11:57:39.076Z,10.73
2018-03-28T11:58:39.058Z,10.70
2018-03-28T11:59:39.059Z,10.65
2018-03-28T12:00:39.066Z,10.62
2018-03-28T12:01:39.072Z,10.60
2018-03-28T12:02:39.079Z,10.57
2018-03-28T12:03:39.088Z,10.54
2018-03-28T12:04:39.092Z,10.52
2018-03-28T12:05:40.172Z,10.48
2018-03-28T12:06:39.127Z,10.46
2018-03-28T12:07:39.116Z,10.46
2018-03-28T12:08:39.124Z,10.46
2018-03-28T12:09:39.115Z,10.46
2018-03-28T12:10:39.139Z,10.45
2018-03-28T12:11:39.116Z,10.48
2018-03-28T12:12:39.124Z,10.49
2018-03-28T12:13:39.125Z,10.49
2018-03-28T12:14:39.143Z,10.54
2018-03-28T12:15:39.139Z,10.49
2018-03-28T12:16:39.172Z,10.49
2018-03-28T12:17:39.150Z,10.54
2018-03-28T12:18:39.157Z,10.52
2018-03-28T12:19:39.163Z,10.52
2018-03-28T12:20:39.166Z,10.54
2018-03-28T12:21:39.188Z,10.52
2018-03-28T12:22:39.179Z,10.52
2018-03-28T12:23:39.202Z,10.52
2018-03-28T12:24:39.193Z,10.49
2018-03-28T12:25:39.187Z,10.52
2018-03-28T12:26:39.194Z,10.52
2018-03-28T12:27:39.204Z,10.55
2018-03-28T12:28:39.202Z,10.55
2018-03-28T12:29:39.210Z,10.58
2018-03-28T12:30:39.213Z,10.60
2018-03-28T12:31:39.221Z,10.62
2018-03-28T12:32:39.223Z,10.64
2018-03-28T12:33:39.225Z,10.64
2018-03-28T12:34:39.237Z,10.64
2018-03-28T12:35:39.273Z,10.64
2018-03-28T12:36:39.263Z,10.62
2018-03-28T12:37:39.246Z,10.62
2018-03-28T12:38:39.252Z,10.60
2018-03-28T12:39:39.255Z,10.58
2018-03-28T12:40:39.257Z,10.57
2018-03-28T12:41:39.268Z,10.55
2018-03-28T12:42:39.275Z,10.54
2018-03-28T12:43:39.360Z,10.52
2018-03-28T12:44:39.280Z,10.49
2018-03-28T12:45:39.366Z,10.46
2018-03-28T12:46:39.290Z,10.42
2018-03-28T12:47:39.373Z,10.39
2018-03-28T12:48:39.300Z,10.36
2018-03-28T12:49:39.474Z,10.31
2018-03-28T12:50:39.328Z,10.28
2018-03-28T12:51:39.430Z,10.24
2018-03-28T12:52:39.337Z,10.21
2018-03-28T12:53:39.448Z,10.20
2018-03-28T12:54:39.381Z,10.20
2018-03-28T12:55:39.559Z,10.18
2018-03-28T12:56:39.342Z,10.20
2018-03-28T12:57:39.453Z,10.21
2018-03-28T12:58:39.350Z,10.24
2018-03-28T12:59:39.456Z,10.30
2018-03-28T13:00:39.362Z,10.31
2018-03-28T13:01:39.475Z,10.34
2018-03-28T13:02:39.383Z,10.36
2018-03-28T13:03:39.474Z,10.36
2018-03-28T13:04:39.389Z,10.36
2018-03-28T13:05:39.498Z,10.38
2018-03-28T13:06:39.450Z,10.36
2018-03-28T13:07:39.412Z,10.35
2018-03-28T13:08:39.515Z,10.34
2018-03-28T13:09:39.412Z,10.30
2018-03-28T13:10:39.429Z,10.28